Time;durP1;ratioP1;P1;durP2;ratioP2;P2;SDS_P1;SDS_P2;PMS_P1;PMS_P2;Temp;Humidity;BMP_temperature;BMP_pressure;BME280_temperature;BME280_humidity;BME280_pressure;Samples;Min_cycle;Max_cycle;Signal;HPM_P1;HPM_P2
2023/01/28 00:01:04;;;;;;;3.43;1.60;;;;;;;-2.15;100.00;102043.94;4941540;28;20051;-82
2023/01/28 00:03:31;;;;;;;4.27;1.93;;;;;;;-2.15;100.00;102046.53;4961545;28;20038;-81
2023/01/28 00:06:02;;;;;;;3.83;1.70;;;;;;;-2.03;100.00;102060.09;4956861;28;20089;-82
2023/01/28 00:08:30;;;;;;;2.80;1.50;;;;;;;-1.87;100.00;102049.75;4986211;28;20039;-82
2023/01/28 00:11:00;;;;;;;2.80;1.80;;;;;;;-1.94;100.00;102052.81;4946103;28;20050;-83
2023/01/28 00:13:28;;;;;;;4.27;2.23;;;;;;;-2.02;100.00;102046.34;4990874;28;20052;-83
2023/01/28 00:16:00;;;;;;;2.77;1.40;;;;;;;-1.96;100.00;102053.56;4963435;28;20039;-83
2023/01/28 00:18:28;;;;;;;3.13;1.07;;;;;;;-1.98;100.00;102051.78;4959527;28;20037;-82
2023/01/28 00:21:02;;;;;;;2.73;1.50;;;;;;;-1.96;100.00;102048.38;4960966;28;20038;-83
2023/01/28 00:23:31;;;;;;;2.67;1.33;;;;;;;-1.94;100.00;102046.75;4946528;28;20042;-82
2023/01/28 00:25:59;;;;;;;2.60;1.33;;;;;;;-1.97;100.00;102050.06;4942949;28;20479;-83
2023/01/28 00:28:25;;;;;;;2.63;2.23;;;;;;;-2.03;100.00;102050.63;4968728;28;20547;-83
2023/01/28 00:30:52;;;;;;;1.73;1.20;;;;;;;-1.98;100.00;102049.19;4964136;28;20081;-83
2023/01/28 00:33:19;;;;;;;5.47;1.43;;;;;;;-1.92;100.00;102056.41;4991156;28;20038;-82
2023/01/28 00:35:46;;;;;;;2.77;1.53;;;;;;;-1.96;100.00;102048.38;4976345;28;20045;-82
2023/01/28 00:38:13;;;;;;;5.13;1.33;;;;;;;-1.91;100.00;102055.59;4959726;28;20089;-83
2023/01/28 00:40:40;;;;;;;3.20;1.40;;;;;;;-1.86;100.00;102054.09;4961272;28;20054;-84
2023/01/28 00:43:06;;;;;;;3.53;1.50;;;;;;;-1.85;100.00;102048.16;4977906;28;20038;-83
2023/01/28 00:45:33;;;;;;;2.63;1.83;;;;;;;-1.86;100.00;102050.63;4988685;28;20100;-83
2023/01/28 00:48:00;;;;;;;3.10;1.33;;;;;;;-1.84;100.00;102049.03;4993094;28;20058;-82
2023/01/28 00:50:27;;;;;;;2.77;1.47;;;;;;;-1.72;100.00;102047.94;4956924;28;20047;-82
2023/01/28 00:52:53;;;;;;;3.67;1.97;;;;;;;-1.85;100.00;102042.03;4956521;28;20050;-83
2023/01/28 00:55:20;;;;;;;3.60;1.70;;;;;;;-1.75;100.00;102044.31;4956746;28;20046;-83
2023/01/28 00:57:53;;;;;;;2.57;1.70;;;;;;;-1.80;100.00;102035.41;4978202;28;20034;-82
2023/01/28 01:00:24;;;;;;;3.83;1.73;;;;;;;-1.66;100.00;102037.03;4963886;28;20054;-83
2023/01/28 01:02:51;;;;;;;2.50;1.57;;;;;;;-1.64;100.00;102037.97;4977621;28;20050;-83
2023/01/28 01:05:18;;;;;;;3.17;1.90;;;;;;;-1.75;100.00;102037.44;4972818;28;20046;-83
2023/01/28 01:07:46;;;;;;;3.13;1.77;;;;;;;-1.73;100.00;102037.50;4973530;28;20050;-83
2023/01/28 01:10:16;;;;;;;3.47;1.60;;;;;;;-1.78;100.00;102039.84;4940791;28;20042;-83
2023/01/28 01:12:52;;;;;;;2.90;1.50;;;;;;;-1.71;100.00;102034.19;4957731;28;20042;-83
2023/01/28 01:15:21;;;;;;;4.50;1.70;;;;;;;-1.75;100.00;102050.41;4993647;28;20034;-83
2023/01/28 01:17:48;;;;;;;5.43;2.53;;;;;;;-1.80;100.00;102046.66;4982948;28;20031;-83
2023/01/28 01:20:17;;;;;;;2.90;1.50;;;;;;;-1.79;100.00;102035.47;4972526;28;20053;-84
2023/01/28 01:22:46;;;;;;;2.63;1.33;;;;;;;-1.78;100.00;102039.84;5005829;28;20081;-85
2023/01/28 01:25:14;;;;;;;3.33;1.77;;;;;;;-1.72;100.00;102045.34;4954254;28;20499;-84
2023/01/28 01:27:44;;;;;;;4.33;1.77;;;;;;;-1.54;100.00;102039.31;4987695;28;20081;-84
2023/01/28 01:30:11;;;;;;;3.23;1.63;;;;;;;-1.63;100.00;102038.88;4973507;28;20061;-84
2023/01/28 01:32:38;;;;;;;2.70;1.87;;;;;;;-1.67;100.00;102049.91;4954013;28;20039;-83
2023/01/28 01:35:09;;;;;;;3.40;1.70;;;;;;;-1.71;100.00;102052.31;4973514;28;20049;-83
2023/01/28 01:37:36;;;;;;;3.00;2.43;;;;;;;-1.65;100.00;102048.28;4979313;28;20109;-84
2023/01/28 01:40:03;;;;;;;3.73;2.10;;;;;;;-1.63;100.00;102047.53;5006152;28;20046;-84
2023/01/28 01:42:31;;;;;;;3.87;2.20;;;;;;;-1.68;100.00;102045.50;4955626;28;20126;-84
2023/01/28 01:45:04;;;;;;;3.97;2.73;;;;;;;-1.66;100.00;102047.38;4957201;28;20057;-85
2023/01/28 01:47:41;;;;;;;9.77;2.70;;;;;;;-1.67;100.00;102044.72;4972875;28;20138;-83
2023/01/28 01:50:31;;;;;;;3.50;1.90;;;;;;;-1.67;100.00;102049.91;4957297;28;20054;-84
2023/01/28 01:53:04;;;;;;;4.00;2.10;;;;;;;-1.63;100.00;102044.06;4964127;28;20073;-82
2023/01/28 01:55:32;;;;;;;3.63;2.00;;;;;;;-1.51;100.00;102042.09;4956375;28;20042;-83
2023/01/28 01:58:02;;;;;;;2.97;1.87;;;;;;;-1.59;100.00;102044.28;4936031;28;20043;-84
2023/01/28 02:00:28;;;;;;;5.00;2.23;;;;;;;-1.37;100.00;102032.41;4956197;28;20053;-83
2023/01/28 02:02:57;;;;;;;2.80;1.67;;;;;;;-1.33;100.00;102039.53;4989763;28;20046;-83
2023/01/28 02:05:24;;;;;;;4.07;2.10;;;;;;;-1.52;100.00;102058.44;4971803;28;20602;-85
2023/01/28 02:08:19;;;;;;;3.03;1.83;;;;;;;-1.47;100.00;102042.31;4987275;28;20050;-84
2023/01/28 02:10:43;;;;;;;2.63;1.43;;;;;;;-1.53;100.00;102054.06;4954452;28;20049;-85
2023/01/28 02:13:09;;;;;;;3.70;2.23;;;;;;;-1.48;100.00;102042.25;4986447;28;20046;-83
2023/01/28 02:15:36;;;;;;;3.97;1.70;;;;;;;-1.51;100.00;102045.56;4949973;28;20120;-83
2023/01/28 02:18:03;;;;;;;5.43;2.13;;;;;;;-1.51;100.00;102042.09;4973762;28;20058;-83
2023/01/28 02:20:54;;;;;;;5.43;3.53;;;;;;;-1.55;100.00;102041.03;4957133;28;20061;-84
2023/01/28 02:23:43;;;;;;;3.60;2.13;;;;;;;-1.54;100.00;102040.22;4992721;28;20046;-83
2023/01/28 02:26:22;;;;;;;3.40;1.80;;;;;;;-1.56;100.00;102039.25;4961363;28;20039;-84
2023/01/28 02:28:56;;;;;;;2.27;1.73;;;;;;;-1.51;100.00;102048.16;4987321;28;20054;-82
2023/01/28 02:31:26;;;;;;;3.67;2.53;;;;;;;-1.52;100.00;102053.25;4982093;28;20498;-84
2023/01/28 02:33:59;;;;;;;3.20;2.00;;;;;;;-1.48;100.00;102039.66;4959265;28;20125;-83
2023/01/28 02:36:34;;;;;;;3.30;1.70;;;;;;;-1.46;100.00;102043.19;4956595;28;20440;-83
2023/01/28 02:39:07;;;;;;;4.53;2.30;;;;;;;-1.37;100.00;102042.75;4969764;28;20467;-83
2023/01/28 02:41:41;;;;;;;;;;;;;;;-1.46;100.00;102040.59;4985364;28;20126;-82
2023/01/28 02:44:10;;;;;;;2.90;1.77;;;;;;;-1.50;100.00;102038.69;4956226;28;19926;-83
2023/01/28 02:49:47;;;;;;;1.93;1.60;;;;;;;-1.45;100.00;102032.91;4951694;28;20563;-83
2023/01/28 02:53:39;;;;;;;1.83;1.40;;;;;;;-1.50;100.00;102031.81;4975552;28;20050;-84
2023/01/28 02:55:25;;;;;;;3.75;1.92;;;;;;;-1.42;100.00;102029.59;4990781;28;20045;-82
2023/01/28 02:58:17;;;;;;;2.92;1.45;;;;;;;-1.50;100.00;102033.50;4974392;28;20496;-83
2023/01/28 03:00:56;;;;;;;2.47;1.60;;;;;;;-1.46;100.00;102033.72;4964357;28;20042;-83
2023/01/28 03:03:28;;;;;;;4.47;1.97;;;;;;;-1.33;100.00;102030.03;4995108;28;20049;-83
2023/01/28 03:06:02;;;;;;;4.10;2.10;;;;;;;-1.42;100.00;102027.00;4945814;28;20046;-83
2023/01/28 03:39:07;;;;;;;2.20;1.57;;;;;;;-1.41;100.00;102026.19;4980275;28;20101;-83
2023/01/28 03:41:34;;;;;;;2.50;1.70;;;;;;;-1.35;100.00;102021.28;4960099;28;20046;-81
2023/01/28 03:46:47;;;;;;;2.30;1.60;;;;;;;-1.38;100.00;102023.72;4991660;28;20046;-80
2023/01/28 03:49:15;;;;;;;2.87;1.80;;;;;;;-1.41;100.00;102026.19;4965264;28;20030;-82
2023/01/28 03:51:42;;;;;;;2.87;1.70;;;;;;;-1.37;100.00;102033.28;4962050;28;20042;-82
2023/01/28 03:54:09;;;;;;;4.20;1.77;;;;;;;-1.31;100.00;102037.91;4966463;28;20623;-82
2023/01/28 03:56:36;;;;;;;2.63;1.90;;;;;;;-1.22;100.00;102040.94;4987421;28;20466;-82
2023/01/28 03:59:03;;;;;;;3.43;2.17;;;;;;;-1.32;100.00;102036.13;4973120;28;20578;-82
2023/01/28 04:01:30;;;;;;;4.63;2.57;;;;;;;-1.27;100.00;102034.63;4966068;28;20210;-82
2023/01/28 04:03:56;;;;;;;3.10;2.20;;;;;;;-1.35;100.00;102028.16;4960733;28;22126;-82
2023/01/28 04:06:23;;;;;;;5.10;2.20;;;;;;;-1.17;100.00;102039.47;5004502;28;20038;-82
2023/01/28 04:08:57;;;;;;;4.43;2.60;;;;;;;-1.32;100.00;102039.59;4980260;28;20038;-82
2023/01/28 04:11:25;;;;;;;3.87;2.40;;;;;;;-1.21;100.00;102042.72;4996718;28;20062;-82
2023/01/28 04:13:52;;;;;;;6.10;2.53;;;;;;;-1.32;100.00;102041.31;5002373;28;20042;-83
2023/01/28 04:16:22;;;;;;;5.23;2.70;;;;;;;-1.38;100.00;102043.59;4980160;28;20045;-81
2023/01/28 04:18:49;;;;;;;3.50;2.10;;;;;;;-1.39;100.00;102029.75;4978771;28;20566;-82
2023/01/28 04:21:15;;;;;;;4.67;2.40;;;;;;;-1.24;100.00;102042.56;4969093;28;20466;-82
2023/01/28 04:23:42;;;;;;;3.97;2.40;;;;;;;-1.00;100.00;102041.19;4972721;28;20046;-83
2023/01/28 04:26:08;;;;;;;4.03;2.10;;;;;;;-1.26;100.00;102037.31;4971435;28;20523;-82
2023/01/28 04:28:35;;;;;;;5.20;3.07;;;;;;;-1.32;100.00;102038.72;5004026;28;20039;-82
2023/01/28 04:31:02;;;;;;;6.23;3.10;;;;;;;-1.35;100.00;102033.34;4979688;28;20074;-81
2023/01/28 04:33:31;;;;;;;3.43;2.17;;;;;;;-1.28;100.00;102033.75;4963495;28;20061;-82
2023/01/28 04:35:58;;;;;;;4.27;2.70;;;;;;;-1.23;100.00;102037.47;4965691;28;20046;-81
2023/01/28 04:38:25;;;;;;;4.93;2.40;;;;;;;-1.15;100.00;102036.13;4978168;28;20405;-81
2023/01/28 04:40:52;;;;;;;4.07;2.30;;;;;;;-1.23;100.00;102033.97;4992163;28;20049;-82
2023/01/28 04:43:19;;;;;;;3.53;2.23;;;;;;;-1.28;100.00;102040.63;4973149;28;20120;-81
2023/01/28 04:45:48;;;;;;;5.73;3.03;;;;;;;-1.29;100.00;102028.47;4964213;28;20416;-81
2023/01/28 04:48:16;;;;;;;3.83;2.07;;;;;;;-1.29;100.00;102039.75;4993482;28;20050;-82
2023/01/28 04:50:43;;;;;;;4.23;2.43;;;;;;;-1.27;100.00;102042.41;4942997;28;20048;-81
2023/01/28 04:53:10;;;;;;;4.93;2.77;;;;;;;-1.22;100.00;102049.59;4973770;28;20129;-81
2023/01/28 04:55:37;;;;;;;5.07;2.20;;;;;;;-1.15;100.00;102050.81;5047004;23;20053;-77
2023/01/28 04:58:04;;;;;;;4.13;2.23;;;;;;;-1.07;100.00;102041.69;4990979;28;20053;-77
2023/01/28 05:00:30;;;;;;;3.87;2.30;;;;;;;-1.12;100.00;102050.94;4989186;28;20030;-77
2023/01/28 05:02:57;;;;;;;4.93;2.30;;;;;;;-1.26;100.00;102045.09;4981208;28;20069;-77
2023/01/28 05:05:24;;;;;;;4.97;2.93;;;;;;;-1.15;100.00;102043.03;4996218;28;20072;-78
2023/01/28 05:07:52;;;;;;;2.87;2.27;;;;;;;-1.21;100.00;102046.19;4996869;28;20069;-77
2023/01/28 05:10:19;;;;;;;4.47;1.90;;;;;;;-1.23;100.00;102039.16;4989277;28;20042;-77
2023/01/28 05:12:46;;;;;;;5.67;3.03;;;;;;;-1.07;100.00;102038.22;4992633;28;20038;-78
2023/01/28 05:15:17;;;;;;;3.90;2.70;;;;;;;-1.10;100.00;102046.72;5017755;28;20454;-77
2023/01/28 05:17:45;;;;;;;3.83;2.80;;;;;;;-1.17;100.00;102044.66;4985942;28;20556;-80
2023/01/28 05:20:13;;;;;;;3.77;2.10;;;;;;;-1.24;100.00;102038.28;4982993;28;20065;-80
2023/01/28 05:22:40;;;;;;;4.67;2.50;;;;;;;-1.26;100.00;102037.31;5008830;28;20097;-78
2023/01/28 05:25:07;;;;;;;4.67;2.50;;;;;;;-1.31;100.00;102048.25;5005445;28;20069;-79
2023/01/28 05:27:34;;;;;;;3.00;1.83;;;;;;;-1.09;100.00;102050.19;4994837;28;20050;-77
2023/01/28 05:30:00;;;;;;;3.17;1.80;;;;;;;-1.14;100.00;102039.63;5009458;28;20046;-80
2023/01/28 05:32:27;;;;;;;4.07;2.10;;;;;;;-1.23;100.00;102045.25;4997913;28;20034;-78
2023/01/28 05:34:54;;;;;;;4.40;2.33;;;;;;;-1.26;100.00;102039.00;4996075;28;20491;-77
2023/01/28 05:37:20;;;;;;;3.97;2.20;;;;;;;-1.19;100.00;102043.66;4987942;28;20042;-81
2023/01/28 05:39:47;;;;;;;3.73;2.23;;;;;;;-0.97;100.00;102037.84;5008171;28;20035;-79
2023/01/28 05:42:14;;;;;;;5.10;2.80;;;;;;;-1.16;100.00;102039.53;5008814;28;20069;-78
2023/01/28 05:44:41;;;;;;;4.57;2.30;;;;;;;-1.01;100.00;102041.09;5014554;28;20562;-80
2023/01/28 05:47:07;;;;;;;4.63;2.50;;;;;;;-1.12;100.00;102043.16;4993391;28;20050;-78
2023/01/28 05:49:34;;;;;;;5.90;2.53;;;;;;;-1.04;100.00;102043.53;5007634;28;20054;-78
2023/01/28 05:52:02;;;;;;;4.97;2.73;;;;;;;-1.11;100.00;102044.06;4991406;28;20084;-79
2023/01/28 05:54:29;;;;;;;4.27;2.63;;;;;;;-1.15;100.00;102037.84;4988032;28;20042;-81
2023/01/28 05:56:58;;;;;;;4.70;2.30;;;;;;;-1.01;100.00;102043.69;5013079;28;20042;-77
2023/01/28 05:59:25;;;;;;;6.20;2.70;;;;;;;-1.16;100.00;102036.94;4981752;28;20054;-78
2023/01/28 06:01:52;;;;;;;3.33;2.33;;;;;;;-1.20;100.00;102047.09;4998758;28;20038;-78
2023/01/28 06:04:19;;;;;;;7.23;2.80;;;;;;;-1.18;100.00;102046.38;5006653;28;20042;-78
2023/01/28 06:06:45;;;;;;;4.97;2.17;;;;;;;-1.22;100.00;102043.53;5009874;28;20038;-79
2023/01/28 06:09:12;;;;;;;4.23;2.53;;;;;;;-1.20;100.00;102050.56;5008404;28;20030;-78
2023/01/28 06:11:39;;;;;;;4.90;2.17;;;;;;;-1.06;100.00;102042.59;4999023;28;20061;-78
2023/01/28 06:14:05;;;;;;;4.80;3.23;;;;;;;-1.04;100.00;102046.13;5013615;28;20034;-81
2023/01/28 06:16:32;;;;;;;6.10;3.73;;;;;;;-1.18;100.00;102048.03;4997358;28;20565;-82
2023/01/28 06:18:58;;;;;;;6.10;2.30;;;;;;;-1.14;100.00;102055.16;5008148;28;20031;-79
2023/01/28 06:21:25;;;;;;;6.67;2.90;;;;;;;-1.00;100.00;102048.06;5010717;28;20046;-77
2023/01/28 06:23:55;;;;;;;4.93;2.33;;;;;;;-1.18;100.00;102050.63;5012619;28;20038;-78
2023/01/28 06:26:22;;;;;;;3.50;2.27;;;;;;;-1.20;100.00;102047.97;4993449;28;20046;-81
2023/01/28 06:28:48;;;;;;;5.17;2.53;;;;;;;-1.23;100.00;102053.03;5014505;28;20045;-81
2023/01/28 06:31:15;;;;;;;5.53;2.33;;;;;;;-1.22;100.00;102049.59;5005588;28;20092;-78
2023/01/28 06:33:42;;;;;;;4.80;2.73;;;;;;;-1.17;100.00;102058.50;5000658;28;20038;-78
2023/01/28 06:36:08;;;;;;;4.20;2.33;;;;;;;-1.22;100.00;102057.38;5014881;28;20038;-79
2023/01/28 06:38:35;;;;;;;4.53;2.30;;;;;;;-1.24;100.00;102060.72;4995808;28;20034;-77
2023/01/28 06:41:02;;;;;;;4.27;2.33;;;;;;;-1.20;100.00;102057.44;4997716;28;20046;-79
2023/01/28 06:43:29;;;;;;;5.83;3.20;;;;;;;-0.97;100.00;102056.00;4995816;28;20092;-81
2023/01/28 06:45:57;;;;;;;3.17;1.93;;;;;;;-1.14;100.00;102056.06;4982661;28;20096;-77
2023/01/28 06:48:24;;;;;;;6.30;2.30;;;;;;;-1.15;100.00;102059.47;4999568;28;20100;-78
2023/01/28 06:50:51;;;;;;;5.27;3.00;;;;;;;-0.96;100.00;102061.25;4998925;28;20061;-79
2023/01/28 06:53:17;;;;;;;3.50;2.20;;;;;;;-1.08;100.00;102067.56;5017558;28;20042;-79
2023/01/28 06:55:44;;;;;;;5.87;2.20;;;;;;;-1.19;100.00;102054.94;5014891;28;20038;-82
2023/01/28 06:58:11;;;;;;;4.97;2.60;;;;;;;-1.13;100.00;102049.16;4995354;28;20050;-81
2023/01/28 07:00:38;;;;;;;5.73;2.97;;;;;;;-1.21;100.00;102048.78;5012238;28;20042;-80
2023/01/28 07:03:05;;;;;;;4.30;2.20;;;;;;;-1.17;100.00;102058.50;4998601;28;20169;-80
2023/01/28 07:05:32;;;;;;;4.30;2.80;;;;;;;-1.11;100.00;102069.97;4973940;28;20096;-78
2023/01/28 07:07:59;;;;;;;4.10;2.53;;;;;;;-1.15;100.00;102061.19;4995833;28;20046;-80
2023/01/28 07:10:25;;;;;;;3.97;2.10;;;;;;;-1.18;100.00;102061.00;4980213;28;20046;-79
2023/01/28 07:12:52;;;;;;;4.13;2.40;;;;;;;-1.16;100.00;102062.00;4992409;28;20042;-79
2023/01/28 07:15:18;;;;;;;6.80;2.77;;;;;;;-1.02;100.00;102067.84;5007639;28;20096;-82
2023/01/28 07:17:45;;;;;;;4.90;2.13;;;;;;;-1.03;100.00;102066.06;5017405;28;20215;-81
2023/01/28 07:20:13;;;;;;;4.47;2.43;;;;;;;-1.16;100.00;102060.28;5008405;28;20381;-79
2023/01/28 07:22:42;;;;;;;5.30;2.20;;;;;;;-1.00;100.00;102072.31;4996601;28;20118;-78
2023/01/28 07:25:10;;;;;;;4.10;2.37;;;;;;;-0.97;100.00;102067.25;5016278;28;20038;-79
2023/01/28 07:27:36;;;;;;;3.43;1.93;;;;;;;-0.99;100.00;102063.72;4989588;28;20045;-79
2023/01/28 07:30:04;;;;;;;5.27;2.43;;;;;;;-0.88;100.00;102061.63;4990621;28;20048;-79
2023/01/28 07:32:30;;;;;;;4.97;2.43;;;;;;;-1.01;100.00;102062.75;4997208;28;20045;-79
2023/01/28 07:34:57;;;;;;;4.23;2.20;;;;;;;-0.97;100.00;102067.25;4996277;28;20034;-80
2023/01/28 07:37:24;;;;;;;6.70;3.20;;;;;;;-1.01;100.00;102069.63;5004239;28;20039;-79
2023/01/28 07:39:51;;;;;;;5.43;2.80;;;;;;;-0.84;100.00;102068.75;5008064;28;20061;-79
2023/01/28 07:42:17;;;;;;;5.43;2.87;;;;;;;-0.94;100.00;102071.69;4994352;28;20042;-78
2023/01/28 07:44:44;;;;;;;7.17;3.13;;;;;;;-0.73;100.00;102071.84;5012299;28;20046;-79
2023/01/28 07:47:11;;;;;;;4.27;2.80;;;;;;;-0.73;100.00;102072.75;5012438;28;20527;-78
2023/01/28 07:49:41;;;;;;;5.50;2.60;;;;;;;-0.84;100.00;102076.53;5011050;28;20061;-79
2023/01/28 07:52:08;;;;;;;5.73;2.90;;;;;;;-0.91;100.00;102077.06;4991332;28;20050;-79
2023/01/28 07:54:34;;;;;;;4.60;2.30;;;;;;;-0.92;100.00;102085.66;4973892;28;20045;-79
2023/01/28 07:57:01;;;;;;;6.17;3.37;;;;;;;-0.92;100.00;102080.47;5003313;28;20423;-79
2023/01/28 07:59:28;;;;;;;7.27;3.70;;;;;;;-0.80;100.00;102081.06;4991024;28;20034;-79
2023/01/28 08:01:54;;;;;;;11.07;5.60;;;;;;;-0.79;100.00;102081.94;4970114;28;20054;-79
2023/01/28 08:04:21;;;;;;;48.80;27.90;;;;;;;-0.82;100.00;102093.06;4974309;28;20412;-79
2023/01/28 08:06:48;;;;;;;37.67;21.13;;;;;;;-0.84;100.00;102099.91;4973727;28;20045;-80
2023/01/28 08:09:14;;;;;;;24.37;15.70;;;;;;;-0.82;100.00;102103.44;4989746;28;20061;-79
2023/01/28 08:11:41;;;;;;;17.00;10.40;;;;;;;-0.85;100.00;102109.34;5000602;28;20522;-80
2023/01/28 08:14:09;;;;;;;10.37;6.97;;;;;;;-0.85;100.00;102104.16;4975587;28;20078;-79
2023/01/28 08:16:36;;;;;;;14.10;8.77;;;;;;;-0.78;100.00;102104.47;4986032;28;20042;-80
2023/01/28 08:19:03;;;;;;;14.20;8.67;;;;;;;-0.77;100.00;102101.94;4983428;28;20038;-79
2023/01/28 08:21:29;;;;;;;10.10;6.73;;;;;;;-0.72;100.00;102115.16;4986768;28;20393;-79
2023/01/28 08:23:56;;;;;;;9.57;6.13;;;;;;;-0.72;100.00;102108.25;4981775;28;20129;-79
2023/01/28 08:26:23;;;;;;;10.57;6.03;;;;;;;-0.57;100.00;102101.22;4970117;28;20121;-80
2023/01/28 08:28:50;;;;;;;8.97;5.90;;;;;;;-0.63;100.00;102100.91;4971764;28;20038;-79
2023/01/28 08:31:17;;;;;;;12.20;6.80;;;;;;;-0.62;100.00;102104.41;5001054;28;20053;-79
2023/01/28 08:33:44;;;;;;;7.53;5.30;;;;;;;-0.60;100.00;102107.94;5009581;28;20269;-79
2023/01/28 08:36:11;;;;;;;7.37;5.30;;;;;;;-0.61;100.00;102099.28;5004845;28;20414;-80
2023/01/28 08:38:37;;;;;;;7.83;4.90;;;;;;;-0.56;100.00;102104.69;5004343;28;20733;-81
2023/01/28 08:41:04;;;;;;;9.30;5.40;;;;;;;-0.54;100.00;102104.75;4974993;28;20111;-80
2023/01/28 08:43:31;;;;;;;15.10;8.07;;;;;;;-0.51;100.00;102108.38;4977551;28;20045;-78
2023/01/28 08:45:57;;;;;;;20.73;11.43;;;;;;;-0.16;100.00;102115.25;4988962;28;20053;-79
2023/01/28 08:48:24;;;;;;;25.97;13.40;;;;;;;-0.36;100.00;102110.81;4977683;28;20048;-79
2023/01/28 08:50:51;;;;;;;18.67;10.97;;;;;;;-0.38;100.00;102112.47;4989381;28;20039;-79
2023/01/28 08:53:19;;;;;;;22.03;11.00;;;;;;;-0.39;100.00;102111.56;4989074;28;20046;-79
2023/01/28 08:55:46;;;;;;;18.20;10.23;;;;;;;-0.34;100.00;102120.47;4991502;28;20042;-79
2023/01/28 08:58:15;;;;;;;16.73;10.73;;;;;;;-0.32;100.00;102124.03;4992478;28;20058;-79
2023/01/28 09:00:42;;;;;;;19.33;9.53;;;;;;;-0.30;100.00;102126.69;4976989;28;20052;-80
2023/01/28 09:03:09;;;;;;;15.30;9.87;;;;;;;-0.28;100.00;102128.53;4995656;28;20062;-81
2023/01/28 09:05:36;;;;;;;15.63;9.93;;;;;;;-0.23;100.00;102126.16;4988547;28;20061;-82
2023/01/28 09:08:12;;;;;;;13.50;8.37;;;;;;;-0.20;100.00;102131.50;4970553;28;20053;-81
2023/01/28 09:10:40;;;;;;;16.67;9.67;;;;;;;-0.20;100.00;102136.69;4996945;28;20517;-81
2023/01/28 09:13:12;;;;;;;12.13;7.40;;;;;;;-0.16;100.00;102141.22;4968932;28;20061;-81
2023/01/28 09:15:39;;;;;;;8.40;4.97;;;;;;;-0.17;100.00;102144.66;4981309;28;20038;-81
2023/01/28 09:18:06;;;;;;;11.03;5.00;;;;;;;-0.15;100.00;102153.41;4984001;28;20334;-80
2023/01/28 09:20:33;;;;;;;7.03;4.10;;;;;;;-0.12;100.00;102145.72;4991266;28;20065;-80
2023/01/28 09:23:01;;;;;;;5.10;3.13;;;;;;;-0.07;100.00;102144.25;4987228;28;20054;-80
2023/01/28 09:25:28;;;;;;;8.10;2.80;;;;;;;-0.04;100.00;102140.91;4988214;28;20129;-81
2023/01/28 09:27:58;;;;;;;6.50;2.70;;;;;;;-0.03;100.00;102142.66;4995580;28;20069;-79
2023/01/28 09:30:24;;;;;;;3.70;2.63;;;;;;;0.03;100.00;102144.66;4979567;28;20049;-80
2023/01/28 09:32:52;;;;;;;2.87;1.80;;;;;;;0.04;100.00;102144.72;5004129;28;20045;-81
2023/01/28 09:35:19;;;;;;;3.27;1.90;;;;;;;0.06;100.00;102144.81;4983234;28;20280;-80
2023/01/28 09:37:46;;;;;;;2.93;1.80;;;;;;;0.11;100.00;102158.91;4992871;28;20100;-80
2023/01/28 09:40:40;;;;;;;4.07;2.47;;;;;;;0.14;100.00;102151.25;4992985;28;20033;-79
2023/01/28 09:43:44;;;;;;;8.23;5.93;;;;;;;0.23;100.00;102156.84;4979785;28;20466;-79
2023/01/28 09:46:13;;;;;;;10.43;7.13;;;;;;;0.22;100.00;102160.28;5011969;28;20300;-79
2023/01/28 09:48:46;;;;;;;11.13;6.80;;;;;;;0.18;100.00;102155.78;5008139;28;20034;-79
2023/01/28 09:51:30;;;;;;;8.50;5.70;;;;;;;0.17;100.00;102147.09;4995745;28;20038;-79
2023/01/28 09:54:01;;;;;;;9.20;5.57;;;;;;;0.20;100.00;102159.31;4972628;28;20065;-80
2023/01/28 09:56:31;;;;;;;8.50;4.77;;;;;;;0.23;100.00;102152.53;4967828;28;20309;-81
2023/01/28 09:59:09;;;;;;;4.63;3.33;;;;;;;0.26;100.00;102151.81;5003368;28;20069;-81
2023/01/28 10:01:52;;;;;;;4.23;2.83;;;;;;;0.31;100.00;102152.88;4991988;28;20042;-81
2023/01/28 10:04:56;;;;;;;5.50;3.90;;;;;;;0.37;100.00;102147.97;4997156;28;20507;-78
2023/01/28 10:07:47;;;;;;;5.10;3.50;;;;;;;0.41;100.00;102165.47;4991998;28;20041;-79
2023/01/28 10:10:17;;;;;;;6.70;4.07;;;;;;;0.44;100.00;102165.63;4975705;28;20042;-78
2023/01/28 10:12:56;;;;;;;6.67;3.47;;;;;;;0.50;100.00;102158.06;5008132;28;20105;-79
2023/01/28 10:15:44;;;;;;;5.53;2.73;;;;;;;0.51;100.00;102146.88;5008689;28;20034;-78
2023/01/28 10:18:12;;;;;;;4.10;2.67;;;;;;;0.51;100.00;102149.47;4991385;28;20042;-78
2023/01/28 10:20:48;;;;;;;2.80;2.10;;;;;;;0.73;100.00;102160.81;4993673;28;20034;-78
2023/01/28 10:23:23;;;;;;;3.53;2.17;;;;;;;0.57;100.00;102148.84;5015595;28;20038;-78
2023/01/28 10:25:50;;;;;;;2.97;1.77;;;;;;;0.51;100.00;102153.78;4982333;28;20037;-79
2023/01/28 10:28:23;;;;;;;2.20;1.50;;;;;;;0.53;100.00;102146.94;4976097;28;20129;-79
2023/01/28 10:30:50;;;;;;;3.97;1.87;;;;;;;0.59;100.00;102151.50;4992593;28;20502;-79
2023/01/28 10:33:21;;;;;;;5.53;3.87;;;;;;;0.70;100.00;102145.97;4991252;28;20137;-80
2023/01/28 10:35:48;;;;;;;7.57;3.70;;;;;;;0.71;100.00;102145.13;4976966;28;20073;-79
2023/01/28 10:38:20;;;;;;;7.07;3.83;;;;;;;0.68;100.00;102141.53;4984342;28;20072;-79
2023/01/28 10:40:46;;;;;;;6.30;4.47;;;;;;;0.75;100.00;102133.13;4999247;28;20457;-79
2023/01/28 10:43:24;;;;;;;3.20;2.07;;;;;;;0.64;100.00;102137.88;4999610;28;20049;-79
2023/01/28 10:45:58;;;;;;;5.03;2.10;;;;;;;0.67;100.00;102144.94;4982961;28;20566;-79
2023/01/28 10:48:39;;;;;;;4.43;2.55;;;;;;;0.67;100.00;102142.31;5003596;28;20042;-79
2023/01/28 10:51:06;;;;;;;4.10;2.57;;;;;;;0.79;100.00;102133.34;4996624;28;20065;-80
2023/01/28 10:53:41;;;;;;;2.40;1.60;;;;;;;0.76;100.00;102138.44;4986438;28;20053;-79
2023/01/28 10:56:09;;;;;;;3.93;2.10;;;;;;;0.82;100.00;102137.78;4988596;28;20114;-79
2023/01/28 10:59:00;;;;;;;2.70;1.60;;;;;;;0.82;100.00;102127.38;5003568;28;20042;-80
2023/01/28 11:01:46;;;;;;;3.33;2.03;;;;;;;0.95;100.00;102136.63;4999549;28;20057;-80
2023/01/28 11:04:24;;;;;;;4.07;1.93;;;;;;;0.91;100.00;102134.69;5017223;28;20042;-80
2023/01/28 11:07:17;;;;;;;3.57;2.10;;;;;;;0.96;100.00;102139.28;5009628;28;20076;-78
2023/01/28 11:09:51;;;;;;;3.83;1.90;;;;;;;0.90;100.00;102130.31;4987923;28;20112;-78
2023/01/28 11:12:29;;;;;;;3.53;2.10;;;;;;;0.99;100.00;102123.78;5003109;28;20049;-79
2023/01/28 11:15:01;;;;;;;2.73;1.60;;;;;;;0.95;100.00;102119.28;4994826;28;20037;-80
2023/01/28 11:17:34;;;;;;;3.97;1.40;;;;;;;1.13;100.00;102122.66;5021156;28;20045;-78
2023/01/28 11:20:10;;;;;;;4.10;2.20;;;;;;;1.04;100.00;102119.66;5001476;28;20038;-79
2023/01/28 11:22:41;;;;;;;3.77;1.83;;;;;;;1.02;100.00;102110.03;4980238;28;20533;-79
2023/01/28 11:25:22;;;;;;;2.30;1.70;;;;;;;1.14;100.00;102107.91;5010215;28;20045;-79
2023/01/28 11:27:50;;;;;;;1.70;1.07;;;;;;;1.29;100.00;102108.53;4991649;28;20038;-79
2023/01/28 11:30:26;;;;;;;1.77;0.90;;;;;;;1.05;100.00;102105.81;4997240;28;20069;-80
2023/01/28 11:33:06;;;;;;;1.10;0.80;;;;;;;1.06;100.00;102107.59;4996436;28;20407;-79
2023/01/28 11:35:33;;;;;;;0.97;0.80;;;;;;;1.01;100.00;102101.34;5011112;28;20035;-79
2023/01/28 11:37:59;;;;;;;2.20;1.37;;;;;;;1.06;100.00;102097.19;4998945;28;20049;-79
2023/01/28 11:40:27;;;;;;;2.27;1.10;;;;;;;1.17;100.00;102104.53;4979881;28;20042;-79
2023/01/28 11:42:58;;;;;;;1.17;0.90;;;;;;;1.21;100.00;102112.56;4995274;28;20199;-79
2023/01/28 11:45:38;;;;;;;1.47;1.00;;;;;;;1.24;100.00;102090.94;4997185;28;20042;-78
2023/01/28 11:48:44;;;;;;;2.57;1.03;;;;;;;1.41;100.00;102090.78;4997484;28;20048;-78
2023/01/28 11:51:36;;;;;;;2.20;1.30;;;;;;;1.33;100.00;102092.19;4985382;28;20162;-79
2023/01/28 11:54:21;;;;;;;2.83;1.97;;;;;;;1.38;92.87;102095.88;4996464;28;20050;-79
2023/01/28 11:57:00;;;;;;;1.60;1.00;;;;;;;1.28;94.61;102096.34;4995413;28;20038;-80
2023/01/28 11:59:48;;;;;;;0.63;0.57;;;;;;;1.51;92.40;102091.16;4993958;28;20046;-79
2023/01/28 12:02:43;;;;;;;2.57;0.80;;;;;;;1.36;84.76;102097.56;4957459;28;20046;-82
2023/01/28 12:05:39;;;;;;;0.52;0.52;;;;;;;1.52;85.27;102092.94;4934215;29;20106;-82
2023/01/28 12:08:25;;;;;;;0.97;0.43;;;;;;;1.42;85.46;102083.88;4950542;28;20043;-82
2023/01/28 12:11:09;;;;;;;1.40;0.60;;;;;;;1.44;87.35;102091.75;4933419;29;20086;-82